sensor_id;sensor_type;location;lat;lon;timestamp;P1;durP1;ratioP1;P2;durP2;ratioP2
41705;SDS011;27385;51.096;17.190;2023-10-19T00:02:21;37.90;;;14.00;;
41705;SDS011;27385;51.096;17.190;2023-10-19T00:04:52;38.40;;;15.20;;
41705;SDS011;27385;51.096;17.190;2023-10-19T00:07:23;39.10;;;14.90;;
41705;SDS011;27385;51.096;17.190;2023-10-19T00:09:53;35.20;;;13.40;;
41705;SDS011;27385;51.096;17.190;2023-10-19T00:12:24;33.40;;;13.90;;
41705;SDS011;27385;51.096;17.190;2023-10-19T00:14:55;34.40;;;13.30;;
41705;SDS011;27385;51.096;17.190;2023-10-19T00:17:27;33.10;;;13.80;;
41705;SDS011;27385;51.096;17.190;2023-10-19T00:20:00;36.50;;;14.80;;
41705;SDS011;27385;51.096;17.190;2023-10-19T00:22:56;32.40;;;13.70;;
41705;SDS011;27385;51.096;17.190;2023-10-19T00:25:26;29.60;;;12.70;;
41705;SDS011;27385;51.096;17.190;2023-10-19T00:27:57;32.30;;;12.70;;
41705;SDS011;27385;51.096;17.190;2023-10-19T00:30:32;33.20;;;12.10;;
41705;SDS011;27385;51.096;17.190;2023-10-19T00:33:04;31.30;;;12.50;;
41705;SDS011;27385;51.096;17.190;2023-10-19T00:35:44;29.50;;;12.30;;
41705;SDS011;27385;51.096;17.190;2023-10-19T00:38:27;37.40;;;13.00;;
41705;SDS011;27385;51.096;17.190;2023-10-19T00:41:09;36.50;;;14.50;;
41705;SDS011;27385;51.096;17.190;2023-10-19T00:43:49;33.00;;;15.20;;
41705;SDS011;27385;51.096;17.190;2023-10-19T00:46:25;42.70;;;14.80;;
41705;SDS011;27385;51.096;17.190;2023-10-19T00:49:00;35.70;;;15.20;;
41705;SDS011;27385;51.096;17.190;2023-10-19T00:51:35;40.70;;;15.40;;
41705;SDS011;27385;51.096;17.190;2023-10-19T00:54:18;33.30;;;13.70;;
41705;SDS011;27385;51.096;17.190;2023-10-19T00:56:56;33.50;;;13.30;;
41705;SDS011;27385;51.096;17.190;2023-10-19T00:59:32;32.90;;;12.80;;
41705;SDS011;27385;51.096;17.190;2023-10-19T01:02:06;35.80;;;14.00;;
41705;SDS011;27385;51.096;17.190;2023-10-19T01:04:48;36.00;;;14.90;;
41705;SDS011;27385;51.096;17.190;2023-10-19T01:07:23;40.70;;;14.40;;
41705;SDS011;27385;51.096;17.190;2023-10-19T01:09:57;37.90;;;15.40;;
41705;SDS011;27385;51.096;17.190;2023-10-19T01:12:31;33.30;;;12.70;;
41705;SDS011;27385;51.096;17.190;2023-10-19T01:15:10;36.50;;;14.20;;
41705;SDS011;27385;51.096;17.190;2023-10-19T01:17:45;37.30;;;13.70;;
41705;SDS011;27385;51.096;17.190;2023-10-19T01:20:21;38.60;;;13.90;;
41705;SDS011;27385;51.096;17.190;2023-10-19T01:23:06;36.90;;;13.40;;
41705;SDS011;27385;51.096;17.190;2023-10-19T01:25:48;36.00;;;12.50;;
41705;SDS011;27385;51.096;17.190;2023-10-19T01:28:27;32.40;;;12.80;;
41705;SDS011;27385;51.096;17.190;2023-10-19T01:31:10;33.10;;;13.90;;
41705;SDS011;27385;51.096;17.190;2023-10-19T01:33:50;40.30;;;15.60;;
41705;SDS011;27385;51.096;17.190;2023-10-19T01:36:23;43.50;;;16.20;;
41705;SDS011;27385;51.096;17.190;2023-10-19T01:38:55;49.30;;;17.30;;
41705;SDS011;27385;51.096;17.190;2023-10-19T01:41:28;53.70;;;19.20;;
41705;SDS011;27385;51.096;17.190;2023-10-19T01:43:59;53.30;;;18.90;;
41705;SDS011;27385;51.096;17.190;2023-10-19T01:46:34;43.50;;;17.20;;
41705;SDS011;27385;51.096;17.190;2023-10-19T01:49:05;46.60;;;17.70;;
41705;SDS011;27385;51.096;17.190;2023-10-19T01:51:36;52.60;;;20.00;;
41705;SDS011;27385;51.096;17.190;2023-10-19T01:54:07;54.70;;;19.50;;
41705;SDS011;27385;51.096;17.190;2023-10-19T01:56:39;43.10;;;18.40;;
41705;SDS011;27385;51.096;17.190;2023-10-19T01:59:11;50.10;;;19.10;;
41705;SDS011;27385;51.096;17.190;2023-10-19T02:01:44;47.10;;;17.60;;
41705;SDS011;27385;51.096;17.190;2023-10-19T02:04:16;45.80;;;18.90;;
41705;SDS011;27385;51.096;17.190;2023-10-19T02:06:49;50.10;;;20.30;;
41705;SDS011;27385;51.096;17.190;2023-10-19T02:09:21;47.20;;;18.90;;
41705;SDS011;27385;51.096;17.190;2023-10-19T02:11:55;52.00;;;20.00;;
41705;SDS011;27385;51.096;17.190;2023-10-19T02:14:26;51.60;;;19.40;;
41705;SDS011;27385;51.096;17.190;2023-10-19T02:16:58;45.50;;;18.30;;
41705;SDS011;27385;51.096;17.190;2023-10-19T02:19:31;51.00;;;19.50;;
41705;SDS011;27385;51.096;17.190;2023-10-19T02:22:02;44.90;;;17.80;;
41705;SDS011;27385;51.096;17.190;2023-10-19T02:24:36;45.50;;;18.50;;
41705;SDS011;27385;51.096;17.190;2023-10-19T02:27:06;47.50;;;19.00;;
41705;SDS011;27385;51.096;17.190;2023-10-19T02:29:37;45.20;;;18.80;;
41705;SDS011;27385;51.096;17.190;2023-10-19T02:32:09;43.80;;;18.10;;
41705;SDS011;27385;51.096;17.190;2023-10-19T02:34:40;49.50;;;19.90;;
41705;SDS011;27385;51.096;17.190;2023-10-19T02:37:11;40.40;;;18.50;;
41705;SDS011;27385;51.096;17.190;2023-10-19T02:39:44;43.90;;;18.80;;
41705;SDS011;27385;51.096;17.190;2023-10-19T02:44:45;46.70;;;18.40;;
41705;SDS011;27385;51.096;17.190;2023-10-19T02:47:18;44.20;;;17.60;;
41705;SDS011;27385;51.096;17.190;2023-10-19T02:49:48;48.10;;;20.20;;
41705;SDS011;27385;51.096;17.190;2023-10-19T02:52:23;46.00;;;19.50;;
41705;SDS011;27385;51.096;17.190;2023-10-19T02:54:55;44.40;;;18.70;;
41705;SDS011;27385;51.096;17.190;2023-10-19T02:57:27;46.50;;;19.40;;
41705;SDS011;27385;51.096;17.190;2023-10-19T02:59:58;45.60;;;19.90;;
41705;SDS011;27385;51.096;17.190;2023-10-19T03:02:36;46.50;;;18.80;;
41705;SDS011;27385;51.096;17.190;2023-10-19T03:05:07;45.60;;;19.30;;
41705;SDS011;27385;51.096;17.190;2023-10-19T03:07:42;41.30;;;16.90;;
41705;SDS011;27385;51.096;17.190;2023-10-19T03:10:13;43.50;;;19.10;;
41705;SDS011;27385;51.096;17.190;2023-10-19T03:12:51;45.80;;;19.10;;
41705;SDS011;27385;51.096;17.190;2023-10-19T03:15:25;47.90;;;18.30;;
41705;SDS011;27385;51.096;17.190;2023-10-19T03:17:58;45.60;;;19.70;;
41705;SDS011;27385;51.096;17.190;2023-10-19T03:20:29;43.30;;;18.60;;
41705;SDS011;27385;51.096;17.190;2023-10-19T03:23:01;45.80;;;18.40;;
41705;SDS011;27385;51.096;17.190;2023-10-19T03:25:31;42.10;;;17.60;;
41705;SDS011;27385;51.096;17.190;2023-10-19T03:28:45;46.80;;;20.40;;
41705;SDS011;27385;51.096;17.190;2023-10-19T03:31:16;47.10;;;19.90;;
41705;SDS011;27385;51.096;17.190;2023-10-19T03:33:48;47.40;;;20.20;;
41705;SDS011;27385;51.096;17.190;2023-10-19T03:36:22;44.30;;;19.70;;
41705;SDS011;27385;51.096;17.190;2023-10-19T03:38:54;45.50;;;19.10;;
41705;SDS011;27385;51.096;17.190;2023-10-19T03:41:28;45.60;;;17.80;;
41705;SDS011;27385;51.096;17.190;2023-10-19T03:44:03;45.60;;;18.50;;
41705;SDS011;27385;51.096;17.190;2023-10-19T03:46:43;43.80;;;17.50;;
41705;SDS011;27385;51.096;17.190;2023-10-19T03:49:23;43.30;;;17.40;;
41705;SDS011;27385;51.096;17.190;2023-10-19T03:52:01;43.20;;;17.10;;
41705;SDS011;27385;51.096;17.190;2023-10-19T03:54:48;39.50;;;17.50;;
41705;SDS011;27385;51.096;17.190;2023-10-19T03:57:19;42.80;;;17.70;;
41705;SDS011;27385;51.096;17.190;2023-10-19T03:59:51;45.50;;;18.10;;
41705;SDS011;27385;51.096;17.190;2023-10-19T04:02:24;43.50;;;19.20;;
41705;SDS011;27385;51.096;17.190;2023-10-19T04:04:57;43.40;;;18.00;;
41705;SDS011;27385;51.096;17.190;2023-10-19T04:07:31;45.30;;;19.00;;
41705;SDS011;27385;51.096;17.190;2023-10-19T04:10:02;48.70;;;19.00;;
41705;SDS011;27385;51.096;17.190;2023-10-19T04:12:57;41.10;;;17.70;;
41705;SDS011;27385;51.096;17.190;2023-10-19T04:15:29;44.70;;;19.00;;
41705;SDS011;27385;51.096;17.190;2023-10-19T04:18:01;44.50;;;17.90;;
41705;SDS011;27385;51.096;17.190;2023-10-19T04:20:38;51.90;;;19.80;;
41705;SDS011;27385;51.096;17.190;2023-10-19T04:23:23;45.30;;;20.90;;
41705;SDS011;27385;51.096;17.190;2023-10-19T04:26:00;48.20;;;19.60;;
41705;SDS011;27385;51.096;17.190;2023-10-19T04:28:39;54.70;;;21.60;;
41705;SDS011;27385;51.096;17.190;2023-10-19T04:31:17;47.70;;;19.70;;
41705;SDS011;27385;51.096;17.190;2023-10-19T04:33:51;53.30;;;22.80;;
41705;SDS011;27385;51.096;17.190;2023-10-19T04:36:22;53.60;;;22.60;;
41705;SDS011;27385;51.096;17.190;2023-10-19T04:38:53;55.70;;;25.10;;
41705;SDS011;27385;51.096;17.190;2023-10-19T04:41:25;69.60;;;26.00;;
41705;SDS011;27385;51.096;17.190;2023-10-19T04:43:56;74.50;;;26.30;;
41705;SDS011;27385;51.096;17.190;2023-10-19T04:46:28;65.40;;;26.70;;
41705;SDS011;27385;51.096;17.190;2023-10-19T04:48:59;67.30;;;28.90;;
41705;SDS011;27385;51.096;17.190;2023-10-19T04:51:31;68.50;;;27.90;;
41705;SDS011;27385;51.096;17.190;2023-10-19T04:54:05;56.80;;;22.80;;
41705;SDS011;27385;51.096;17.190;2023-10-19T04:56:37;60.20;;;23.90;;
41705;SDS011;27385;51.096;17.190;2023-10-19T04:59:07;57.20;;;24.00;;
41705;SDS011;27385;51.096;17.190;2023-10-19T05:01:38;60.10;;;24.50;;
41705;SDS011;27385;51.096;17.190;2023-10-19T05:04:09;58.40;;;23.30;;
41705;SDS011;27385;51.096;17.190;2023-10-19T05:06:40;60.30;;;25.80;;
41705;SDS011;27385;51.096;17.190;2023-10-19T05:11:41;57.40;;;23.40;;
41705;SDS011;27385;51.096;17.190;2023-10-19T05:14:13;58.60;;;24.00;;
41705;SDS011;27385;51.096;17.190;2023-10-19T05:16:44;59.90;;;24.20;;
41705;SDS011;27385;51.096;17.190;2023-10-19T05:19:15;57.00;;;24.00;;
41705;SDS011;27385;51.096;17.190;2023-10-19T05:21:46;61.30;;;24.10;;
41705;SDS011;27385;51.096;17.190;2023-10-19T05:24:17;64.20;;;28.30;;
41705;SDS011;27385;51.096;17.190;2023-10-19T05:26:48;77.30;;;30.80;;
41705;SDS011;27385;51.096;17.190;2023-10-19T05:29:18;88.50;;;33.70;;
41705;SDS011;27385;51.096;17.190;2023-10-19T05:31:50;84.30;;;32.70;;
41705;SDS011;27385;51.096;17.190;2023-10-19T05:34:22;74.20;;;30.60;;
41705;SDS011;27385;51.096;17.190;2023-10-19T05:36:56;77.20;;;31.30;;
41705;SDS011;27385;51.096;17.190;2023-10-19T05:39:29;76.50;;;31.10;;
41705;SDS011;27385;51.096;17.190;2023-10-19T05:42:01;69.90;;;29.20;;
41705;SDS011;27385;51.096;17.190;2023-10-19T05:44:32;57.80;;;25.30;;
41705;SDS011;27385;51.096;17.190;2023-10-19T05:47:02;54.80;;;24.30;;
41705;SDS011;27385;51.096;17.190;2023-10-19T05:49:33;51.70;;;22.70;;
41705;SDS011;27385;51.096;17.190;2023-10-19T05:52:05;50.10;;;22.00;;
41705;SDS011;27385;51.096;17.190;2023-10-19T05:54:35;49.90;;;22.70;;
41705;SDS011;27385;51.096;17.190;2023-10-19T05:57:06;44.60;;;21.40;;
41705;SDS011;27385;51.096;17.190;2023-10-19T05:59:37;59.20;;;22.20;;
41705;SDS011;27385;51.096;17.190;2023-10-19T06:02:08;50.70;;;22.40;;
41705;SDS011;27385;51.096;17.190;2023-10-19T06:04:39;47.60;;;20.20;;
41705;SDS011;27385;51.096;17.190;2023-10-19T06:07:09;46.70;;;19.30;;
41705;SDS011;27385;51.096;17.190;2023-10-19T06:09:40;40.10;;;18.40;;
41705;SDS011;27385;51.096;17.190;2023-10-19T06:12:11;41.60;;;18.90;;
41705;SDS011;27385;51.096;17.190;2023-10-19T06:14:41;41.00;;;18.30;;
41705;SDS011;27385;51.096;17.190;2023-10-19T06:17:12;46.40;;;19.10;;
41705;SDS011;27385;51.096;17.190;2023-10-19T06:19:46;40.90;;;18.30;;
41705;SDS011;27385;51.096;17.190;2023-10-19T06:22:17;45.50;;;19.40;;
41705;SDS011;27385;51.096;17.190;2023-10-19T06:24:48;47.70;;;20.10;;
41705;SDS011;27385;51.096;17.190;2023-10-19T06:27:19;38.00;;;17.60;;
41705;SDS011;27385;51.096;17.190;2023-10-19T06:29:50;34.60;;;16.70;;
41705;SDS011;27385;51.096;17.190;2023-10-19T06:32:21;41.90;;;17.20;;
41705;SDS011;27385;51.096;17.190;2023-10-19T06:34:52;43.60;;;16.40;;
41705;SDS011;27385;51.096;17.190;2023-10-19T06:37:23;44.40;;;17.70;;
41705;SDS011;27385;51.096;17.190;2023-10-19T06:39:55;42.50;;;17.50;;
41705;SDS011;27385;51.096;17.190;2023-10-19T06:42:25;40.80;;;16.50;;
41705;SDS011;27385;51.096;17.190;2023-10-19T06:44:57;36.20;;;15.70;;
41705;SDS011;27385;51.096;17.190;2023-10-19T06:47:28;40.10;;;16.20;;
41705;SDS011;27385;51.096;17.190;2023-10-19T06:49:58;39.90;;;16.10;;
41705;SDS011;27385;51.096;17.190;2023-10-19T06:52:32;41.50;;;16.00;;
41705;SDS011;27385;51.096;17.190;2023-10-19T06:55:04;35.20;;;15.80;;
41705;SDS011;27385;51.096;17.190;2023-10-19T06:57:41;43.00;;;17.30;;
41705;SDS011;27385;51.096;17.190;2023-10-19T07:00:13;45.80;;;18.40;;
41705;SDS011;27385;51.096;17.190;2023-10-19T07:02:47;41.00;;;15.70;;
41705;SDS011;27385;51.096;17.190;2023-10-19T07:05:19;43.20;;;18.10;;
41705;SDS011;27385;51.096;17.190;2023-10-19T07:07:52;41.90;;;17.20;;
41705;SDS011;27385;51.096;17.190;2023-10-19T07:10:24;52.30;;;19.20;;
41705;SDS011;27385;51.096;17.190;2023-10-19T07:12:56;39.70;;;17.10;;
41705;SDS011;27385;51.096;17.190;2023-10-19T07:15:27;40.00;;;17.60;;
41705;SDS011;27385;51.096;17.190;2023-10-19T07:17:58;39.70;;;17.20;;
41705;SDS011;27385;51.096;17.190;2023-10-19T07:20:28;41.20;;;16.90;;
41705;SDS011;27385;51.096;17.190;2023-10-19T07:23:00;41.60;;;16.90;;
41705;SDS011;27385;51.096;17.190;2023-10-19T07:25:37;42.00;;;17.70;;
41705;SDS011;27385;51.096;17.190;2023-10-19T07:28:11;39.10;;;15.70;;
41705;SDS011;27385;51.096;17.190;2023-10-19T07:30:42;40.80;;;18.00;;
41705;SDS011;27385;51.096;17.190;2023-10-19T07:33:14;40.00;;;17.60;;
41705;SDS011;27385;51.096;17.190;2023-10-19T07:35:46;42.90;;;16.50;;
41705;SDS011;27385;51.096;17.190;2023-10-19T07:38:20;44.90;;;19.10;;
41705;SDS011;27385;51.096;17.190;2023-10-19T07:40:52;46.30;;;17.90;;
41705;SDS011;27385;51.096;17.190;2023-10-19T07:43:22;43.30;;;18.10;;
41705;SDS011;27385;51.096;17.190;2023-10-19T07:45:54;54.30;;;23.30;;
41705;SDS011;27385;51.096;17.190;2023-10-19T07:48:24;55.30;;;26.80;;
41705;SDS011;27385;51.096;17.190;2023-10-19T07:50:55;52.00;;;25.30;;
41705;SDS011;27385;51.096;17.190;2023-10-19T07:53:26;52.30;;;25.20;;
41705;SDS011;27385;51.096;17.190;2023-10-19T07:55:57;47.10;;;22.00;;
41705;SDS011;27385;51.096;17.190;2023-10-19T07:58:28;42.50;;;21.40;;
41705;SDS011;27385;51.096;17.190;2023-10-19T08:00:59;39.30;;;18.20;;
41705;SDS011;27385;51.096;17.190;2023-10-19T08:03:30;41.00;;;17.70;;
41705;SDS011;27385;51.096;17.190;2023-10-19T08:06:00;40.80;;;19.20;;
41705;SDS011;27385;51.096;17.190;2023-10-19T08:08:32;40.80;;;17.90;;
41705;SDS011;27385;51.096;17.190;2023-10-19T08:11:03;46.30;;;19.60;;
41705;SDS011;27385;51.096;17.190;2023-10-19T08:13:34;48.00;;;19.90;;
41705;SDS011;27385;51.096;17.190;2023-10-19T08:16:05;39.00;;;18.20;;
41705;SDS011;27385;51.096;17.190;2023-10-19T08:18:36;37.20;;;17.70;;
41705;SDS011;27385;51.096;17.190;2023-10-19T08:21:07;46.50;;;19.20;;
41705;SDS011;27385;51.096;17.190;2023-10-19T08:23:38;43.40;;;20.30;;
41705;SDS011;27385;51.096;17.190;2023-10-19T08:26:09;42.40;;;18.60;;
41705;SDS011;27385;51.096;17.190;2023-10-19T08:28:40;49.20;;;19.00;;
41705;SDS011;27385;51.096;17.190;2023-10-19T08:31:11;38.40;;;17.30;;
41705;SDS011;27385;51.096;17.190;2023-10-19T08:33:42;39.30;;;18.50;;
41705;SDS011;27385;51.096;17.190;2023-10-19T08:36:17;40.20;;;18.80;;
41705;SDS011;27385;51.096;17.190;2023-10-19T08:38:49;38.50;;;16.60;;
41705;SDS011;27385;51.096;17.190;2023-10-19T08:41:21;38.60;;;16.70;;
41705;SDS011;27385;51.096;17.190;2023-10-19T08:43:52;38.00;;;17.80;;
41705;SDS011;27385;51.096;17.190;2023-10-19T08:46:24;38.70;;;16.40;;
41705;SDS011;27385;51.096;17.190;2023-10-19T08:48:56;40.70;;;17.80;;
41705;SDS011;27385;51.096;17.190;2023-10-19T08:51:28;37.20;;;17.90;;
41705;SDS011;27385;51.096;17.190;2023-10-19T08:53:58;41.50;;;17.00;;
41705;SDS011;27385;51.096;17.190;2023-10-19T08:56:30;37.90;;;16.40;;
41705;SDS011;27385;51.096;17.190;2023-10-19T08:59:02;39.30;;;17.70;;
41705;SDS011;27385;51.096;17.190;2023-10-19T09:01:33;37.10;;;17.20;;
41705;SDS011;27385;51.096;17.190;2023-10-19T09:04:05;41.10;;;18.40;;
41705;SDS011;27385;51.096;17.190;2023-10-19T09:06:36;38.60;;;19.20;;
41705;SDS011;27385;51.096;17.190;2023-10-19T09:09:10;38.30;;;18.40;;
41705;SDS011;27385;51.096;17.190;2023-10-19T09:11:44;35.10;;;16.80;;
41705;SDS011;27385;51.096;17.190;2023-10-19T09:14:15;38.30;;;18.00;;
41705;SDS011;27385;51.096;17.190;2023-10-19T09:16:59;41.40;;;19.10;;
41705;SDS011;27385;51.096;17.190;2023-10-19T09:19:42;37.70;;;17.70;;
41705;SDS011;27385;51.096;17.190;2023-10-19T09:22:15;40.10;;;17.80;;
41705;SDS011;27385;51.096;17.190;2023-10-19T09:24:50;38.40;;;19.50;;
41705;SDS011;27385;51.096;17.190;2023-10-19T09:27:22;44.40;;;19.80;;
41705;SDS011;27385;51.096;17.190;2023-10-19T09:29:53;39.40;;;21.30;;
41705;SDS011;27385;51.096;17.190;2023-10-19T09:32:24;45.70;;;22.20;;
41705;SDS011;27385;51.096;17.190;2023-10-19T09:34:55;41.60;;;21.50;;
41705;SDS011;27385;51.096;17.190;2023-10-19T09:37:26;43.00;;;20.70;;
41705;SDS011;27385;51.096;17.190;2023-10-19T09:39:58;44.60;;;20.90;;
41705;SDS011;27385;51.096;17.190;2023-10-19T09:42:28;42.80;;;20.90;;
41705;SDS011;27385;51.096;17.190;2023-10-19T09:45:01;45.50;;;20.10;;
41705;SDS011;27385;51.096;17.190;2023-10-19T09:47:37;47.10;;;20.20;;
41705;SDS011;27385;51.096;17.190;2023-10-19T09:50:11;44.50;;;21.20;;
41705;SDS011;27385;51.096;17.190;2023-10-19T09:52:42;45.80;;;22.50;;
41705;SDS011;27385;51.096;17.190;2023-10-19T09:55:14;52.10;;;22.10;;
41705;SDS011;27385;51.096;17.190;2023-10-19T09:57:53;47.10;;;21.60;;
41705;SDS011;27385;51.096;17.190;2023-10-19T10:00:25;45.70;;;20.90;;
41705;SDS011;27385;51.096;17.190;2023-10-19T10:02:59;49.10;;;23.50;;
41705;SDS011;27385;51.096;17.190;2023-10-19T10:05:46;47.50;;;24.00;;
41705;SDS011;27385;51.096;17.190;2023-10-19T10:13:45;48.30;;;24.70;;
41705;SDS011;27385;51.096;17.190;2023-10-19T10:16:18;46.10;;;22.70;;
41705;SDS011;27385;51.096;17.190;2023-10-19T10:18:53;57.00;;;28.10;;
41705;SDS011;27385;51.096;17.190;2023-10-19T10:21:27;56.30;;;27.40;;
41705;SDS011;27385;51.096;17.190;2023-10-19T10:23:59;62.60;;;32.40;;
41705;SDS011;27385;51.096;17.190;2023-10-19T10:26:56;70.90;;;38.20;;
41705;SDS011;27385;51.096;17.190;2023-10-19T10:29:30;55.40;;;29.70;;
41705;SDS011;27385;51.096;17.190;2023-10-19T10:32:01;47.80;;;24.70;;
41705;SDS011;27385;51.096;17.190;2023-10-19T10:34:45;49.10;;;24.10;;
41705;SDS011;27385;51.096;17.190;2023-10-19T10:37:17;42.40;;;22.90;;
41705;SDS011;27385;51.096;17.190;2023-10-19T10:39:48;46.30;;;25.00;;
41705;SDS011;27385;51.096;17.190;2023-10-19T10:42:27;50.00;;;26.10;;
41705;SDS011;27385;51.096;17.190;2023-10-19T10:44:59;46.90;;;24.90;;
41705;SDS011;27385;51.096;17.190;2023-10-19T10:47:33;47.20;;;24.20;;
41705;SDS011;27385;51.096;17.190;2023-10-19T10:50:05;79.50;;;40.60;;
41705;SDS011;27385;51.096;17.190;2023-10-19T10:52:38;126.90;;;67.10;;
41705;SDS011;27385;51.096;17.190;2023-10-19T10:55:09;114.70;;;60.40;;
41705;SDS011;27385;51.096;17.190;2023-10-19T10:57:43;98.70;;;54.30;;
41705;SDS011;27385;51.096;17.190;2023-10-19T11:00:14;56.80;;;31.00;;
41705;SDS011;27385;51.096;17.190;2023-10-19T11:02:47;64.90;;;34.60;;
41705;SDS011;27385;51.096;17.190;2023-10-19T11:05:29;59.00;;;32.10;;
41705;SDS011;27385;51.096;17.190;2023-10-19T11:08:08;55.00;;;31.40;;
41705;SDS011;27385;51.096;17.190;2023-10-19T11:10:41;58.70;;;33.20;;
41705;SDS011;27385;51.096;17.190;2023-10-19T11:13:14;48.40;;;26.80;;
41705;SDS011;27385;51.096;17.190;2023-10-19T11:15:50;54.90;;;29.80;;
41705;SDS011;27385;51.096;17.190;2023-10-19T11:18:32;72.80;;;41.00;;
41705;SDS011;27385;51.096;17.190;2023-10-19T11:21:08;64.90;;;43.80;;
41705;SDS011;27385;51.096;17.190;2023-10-19T11:23:43;60.10;;;34.90;;
41705;SDS011;27385;51.096;17.190;2023-10-19T11:26:16;49.20;;;25.80;;
41705;SDS011;27385;51.096;17.190;2023-10-19T11:28:49;48.70;;;25.40;;
41705;SDS011;27385;51.096;17.190;2023-10-19T11:34:07;38.30;;;19.00;;
41705;SDS011;27385;51.096;17.190;2023-10-19T11:36:38;46.00;;;21.40;;
41705;SDS011;27385;51.096;17.190;2023-10-19T11:39:09;43.10;;;23.00;;
41705;SDS011;27385;51.096;17.190;2023-10-19T11:41:41;41.90;;;21.90;;
41705;SDS011;27385;51.096;17.190;2023-10-19T11:44:14;47.10;;;23.80;;
41705;SDS011;27385;51.096;17.190;2023-10-19T11:46:45;47.80;;;23.70;;
41705;SDS011;27385;51.096;17.190;2023-10-19T11:49:16;43.30;;;23.00;;
41705;SDS011;27385;51.096;17.190;2023-10-19T11:51:48;47.70;;;22.20;;
41705;SDS011;27385;51.096;17.190;2023-10-19T11:54:19;43.40;;;21.50;;
41705;SDS011;27385;51.096;17.190;2023-10-19T11:56:50;42.70;;;22.50;;
41705;SDS011;27385;51.096;17.190;2023-10-19T11:59:22;46.60;;;23.90;;
41705;SDS011;27385;51.096;17.190;2023-10-19T12:01:54;43.90;;;23.80;;
41705;SDS011;27385;51.096;17.190;2023-10-19T12:04:26;43.90;;;22.20;;
41705;SDS011;27385;51.096;17.190;2023-10-19T12:06:57;46.20;;;23.50;;
41705;SDS011;27385;51.096;17.190;2023-10-19T12:09:29;43.40;;;22.90;;
41705;SDS011;27385;51.096;17.190;2023-10-19T12:12:00;40.90;;;21.90;;
41705;SDS011;27385;51.096;17.190;2023-10-19T12:14:33;43.30;;;23.10;;
41705;SDS011;27385;51.096;17.190;2023-10-19T12:17:04;47.60;;;25.30;;
41705;SDS011;27385;51.096;17.190;2023-10-19T12:19:35;44.90;;;23.60;;
41705;SDS011;27385;51.096;17.190;2023-10-19T12:22:06;39.50;;;21.30;;
41705;SDS011;27385;51.096;17.190;2023-10-19T12:24:39;45.50;;;21.90;;
41705;SDS011;27385;51.096;17.190;2023-10-19T12:27:11;47.60;;;24.70;;
41705;SDS011;27385;51.096;17.190;2023-10-19T12:29:42;50.30;;;27.80;;
41705;SDS011;27385;51.096;17.190;2023-10-19T12:32:13;48.30;;;24.70;;
41705;SDS011;27385;51.096;17.190;2023-10-19T12:34:44;48.80;;;25.30;;
41705;SDS011;27385;51.096;17.190;2023-10-19T12:37:18;48.30;;;25.70;;
41705;SDS011;27385;51.096;17.190;2023-10-19T12:39:48;53.50;;;25.40;;
41705;SDS011;27385;51.096;17.190;2023-10-19T12:42:22;51.50;;;25.30;;
41705;SDS011;27385;51.096;17.190;2023-10-19T12:44:53;46.20;;;24.30;;
41705;SDS011;27385;51.096;17.190;2023-10-19T12:47:23;51.30;;;28.00;;
41705;SDS011;27385;51.096;17.190;2023-10-19T12:49:55;56.30;;;30.40;;
41705;SDS011;27385;51.096;17.190;2023-10-19T12:52:26;49.30;;;25.60;;
41705;SDS011;27385;51.096;17.190;2023-10-19T12:54:57;47.10;;;24.70;;
41705;SDS011;27385;51.096;17.190;2023-10-19T12:57:32;47.50;;;26.90;;
41705;SDS011;27385;51.096;17.190;2023-10-19T13:00:03;52.20;;;29.20;;
41705;SDS011;27385;51.096;17.190;2023-10-19T13:02:51;52.10;;;28.60;;
41705;SDS011;27385;51.096;17.190;2023-10-19T13:05:29;49.10;;;26.50;;
41705;SDS011;27385;51.096;17.190;2023-10-19T13:08:02;49.50;;;29.20;;
41705;SDS011;27385;51.096;17.190;2023-10-19T13:10:47;55.70;;;29.50;;
41705;SDS011;27385;51.096;17.190;2023-10-19T13:13:18;55.00;;;31.10;;
41705;SDS011;27385;51.096;17.190;2023-10-19T13:15:51;59.60;;;30.70;;
41705;SDS011;27385;51.096;17.190;2023-10-19T13:18:22;60.70;;;30.80;;
41705;SDS011;27385;51.096;17.190;2023-10-19T13:20:55;70.50;;;36.30;;
41705;SDS011;27385;51.096;17.190;2023-10-19T13:23:29;97.10;;;49.50;;
41705;SDS011;27385;51.096;17.190;2023-10-19T13:26:00;60.10;;;29.10;;
41705;SDS011;27385;51.096;17.190;2023-10-19T13:28:44;59.80;;;30.00;;
41705;SDS011;27385;51.096;17.190;2023-10-19T13:31:16;58.40;;;29.50;;
41705;SDS011;27385;51.096;17.190;2023-10-19T13:33:49;85.10;;;47.40;;
41705;SDS011;27385;51.096;17.190;2023-10-19T13:36:20;59.90;;;31.50;;
41705;SDS011;27385;51.096;17.190;2023-10-19T13:38:51;54.80;;;28.10;;
41705;SDS011;27385;51.096;17.190;2023-10-19T13:41:22;52.20;;;28.30;;
41705;SDS011;27385;51.096;17.190;2023-10-19T13:43:53;82.70;;;43.40;;
41705;SDS011;27385;51.096;17.190;2023-10-19T13:46:24;97.70;;;56.00;;
41705;SDS011;27385;51.096;17.190;2023-10-19T13:48:55;94.50;;;55.90;;
41705;SDS011;27385;51.096;17.190;2023-10-19T13:51:26;71.40;;;45.30;;
41705;SDS011;27385;51.096;17.190;2023-10-19T13:53:57;69.50;;;41.40;;
41705;SDS011;27385;51.096;17.190;2023-10-19T13:56:28;50.20;;;26.30;;
41705;SDS011;27385;51.096;17.190;2023-10-19T13:58:58;51.10;;;28.80;;
41705;SDS011;27385;51.096;17.190;2023-10-19T14:01:29;52.10;;;28.80;;
41705;SDS011;27385;51.096;17.190;2023-10-19T14:04:00;53.90;;;27.80;;
41705;SDS011;27385;51.096;17.190;2023-10-19T14:06:31;54.20;;;26.30;;
41705;SDS011;27385;51.096;17.190;2023-10-19T14:09:02;54.50;;;28.20;;
41705;SDS011;27385;51.096;17.190;2023-10-19T14:11:33;60.10;;;28.80;;
41705;SDS011;27385;51.096;17.190;2023-10-19T14:14:04;59.20;;;28.70;;
41705;SDS011;27385;51.096;17.190;2023-10-19T14:16:34;52.70;;;25.50;;
41705;SDS011;27385;51.096;17.190;2023-10-19T14:19:07;48.70;;;25.70;;
41705;SDS011;27385;51.096;17.190;2023-10-19T14:21:37;48.00;;;26.20;;
41705;SDS011;27385;51.096;17.190;2023-10-19T14:24:08;56.00;;;28.00;;
41705;SDS011;27385;51.096;17.190;2023-10-19T14:26:39;59.20;;;30.70;;
41705;SDS011;27385;51.096;17.190;2023-10-19T14:29:10;55.30;;;27.50;;
41705;SDS011;27385;51.096;17.190;2023-10-19T14:31:41;71.40;;;34.10;;
41705;SDS011;27385;51.096;17.190;2023-10-19T14:34:12;54.80;;;28.60;;
41705;SDS011;27385;51.096;17.190;2023-10-19T14:36:43;53.60;;;28.10;;
41705;SDS011;27385;51.096;17.190;2023-10-19T14:39:15;58.40;;;30.10;;
41705;SDS011;27385;51.096;17.190;2023-10-19T14:41:47;70.90;;;38.10;;
41705;SDS011;27385;51.096;17.190;2023-10-19T14:44:19;72.20;;;38.90;;
41705;SDS011;27385;51.096;17.190;2023-10-19T14:46:50;64.20;;;35.60;;
41705;SDS011;27385;51.096;17.190;2023-10-19T14:49:21;63.10;;;34.10;;
41705;SDS011;27385;51.096;17.190;2023-10-19T14:51:52;61.50;;;33.80;;
41705;SDS011;27385;51.096;17.190;2023-10-19T14:54:23;67.20;;;38.30;;
41705;SDS011;27385;51.096;17.190;2023-10-19T14:56:56;58.00;;;35.00;;